sensor_id;sensor_type;location;lat;lon;timestamp;temperature;humidity
62862;DHT22;48953;53.110;5.592;2022-07-17T00:00:51;8.80;99.90
62862;DHT22;48953;53.110;5.592;2022-07-17T00:03:17;8.80;99.90
62862;DHT22;48953;53.110;5.592;2022-07-17T00:05:45;8.80;99.90
62862;DHT22;48953;53.110;5.592;2022-07-17T00:08:11;8.80;99.90
62862;DHT22;48953;53.110;5.592;2022-07-17T00:10:39;8.70;99.90
62862;DHT22;48953;53.110;5.592;2022-07-17T00:13:05;8.70;95.10
62862;DHT22;48953;53.110;5.592;2022-07-17T00:15:32;8.70;93.00
62862;DHT22;48953;53.110;5.592;2022-07-17T00:17:58;8.80;99.90
62862;DHT22;48953;53.110;5.592;2022-07-17T00:20:25;8.80;99.90
62862;DHT22;48953;53.110;5.592;2022-07-17T00:22:52;8.80;99.90
62862;DHT22;48953;53.110;5.592;2022-07-17T00:25:18;8.70;99.90
62862;DHT22;48953;53.110;5.592;2022-07-17T00:27:43;8.60;99.90
62862;DHT22;48953;53.110;5.592;2022-07-17T00:30:09;8.60;99.90
62862;DHT22;48953;53.110;5.592;2022-07-17T00:32:35;8.70;99.90
62862;DHT22;48953;53.110;5.592;2022-07-17T00:35:01;8.60;99.90
62862;DHT22;48953;53.110;5.592;2022-07-17T00:37:26;8.70;99.90
62862;DHT22;48953;53.110;5.592;2022-07-17T00:39:52;9.00;99.90
62862;DHT22;48953;53.110;5.592;2022-07-17T00:42:18;9.00;99.90
62862;DHT22;48953;53.110;5.592;2022-07-17T00:44:44;8.70;99.90
62862;DHT22;48953;53.110;5.592;2022-07-17T00:47:15;8.70;99.90
62862;DHT22;48953;53.110;5.592;2022-07-17T00:49:41;8.60;99.90
62862;DHT22;48953;53.110;5.592;2022-07-17T00:52:09;8.60;99.90
62862;DHT22;48953;53.110;5.592;2022-07-17T00:54:39;8.60;99.90
62862;DHT22;48953;53.110;5.592;2022-07-17T00:57:09;8.60;99.90
62862;DHT22;48953;53.110;5.592;2022-07-17T00:59:35;8.60;99.90
62862;DHT22;48953;53.110;5.592;2022-07-17T01:02:08;8.50;99.90
62862;DHT22;48953;53.110;5.592;2022-07-17T01:04:35;8.50;99.90
62862;DHT22;48953;53.110;5.592;2022-07-17T01:07:06;8.50;99.90
62862;DHT22;48953;53.110;5.592;2022-07-17T01:09:32;8.50;99.90
62862;DHT22;48953;53.110;5.592;2022-07-17T01:12:00;8.40;99.90
62862;DHT22;48953;53.110;5.592;2022-07-17T01:14:27;8.40;99.90
62862;DHT22;48953;53.110;5.592;2022-07-17T01:16:54;8.40;99.90
62862;DHT22;48953;53.110;5.592;2022-07-17T01:19:20;8.40;99.90
62862;DHT22;48953;53.110;5.592;2022-07-17T01:21:48;8.40;99.90
62862;DHT22;48953;53.110;5.592;2022-07-17T01:24:15;8.30;99.90
62862;DHT22;48953;53.110;5.592;2022-07-17T01:26:45;8.40;99.90
62862;DHT22;48953;53.110;5.592;2022-07-17T01:29:12;8.40;99.90
62862;DHT22;48953;53.110;5.592;2022-07-17T01:31:39;8.40;99.90
62862;DHT22;48953;53.110;5.592;2022-07-17T01:34:06;8.40;99.90
62862;DHT22;48953;53.110;5.592;2022-07-17T01:36:33;8.40;99.90
62862;DHT22;48953;53.110;5.592;2022-07-17T01:38:59;8.50;99.90
62862;DHT22;48953;53.110;5.592;2022-07-17T01:41:24;8.50;99.90
62862;DHT22;48953;53.110;5.592;2022-07-17T01:43:50;8.40;99.90
62862;DHT22;48953;53.110;5.592;2022-07-17T01:46:16;8.40;99.90
62862;DHT22;48953;53.110;5.592;2022-07-17T01:48:41;8.60;99.90
62862;DHT22;48953;53.110;5.592;2022-07-17T01:51:07;8.60;99.90
62862;DHT22;48953;53.110;5.592;2022-07-17T01:53:33;8.50;99.90
62862;DHT22;48953;53.110;5.592;2022-07-17T01:55:58;8.40;99.90
62862;DHT22;48953;53.110;5.592;2022-07-17T01:58:24;8.40;99.90
62862;DHT22;48953;53.110;5.592;2022-07-17T02:00:50;8.40;99.90
62862;DHT22;48953;53.110;5.592;2022-07-17T02:03:16;8.40;99.90
62862;DHT22;48953;53.110;5.592;2022-07-17T02:05:42;8.40;99.90
62862;DHT22;48953;53.110;5.592;2022-07-17T02:08:08;8.40;99.90
62862;DHT22;48953;53.110;5.592;2022-07-17T02:10:34;8.40;99.90
62862;DHT22;48953;53.110;5.592;2022-07-17T02:13:00;8.40;99.90
62862;DHT22;48953;53.110;5.592;2022-07-17T02:15:26;8.40;99.90
62862;DHT22;48953;53.110;5.592;2022-07-17T02:17:51;8.50;99.90
62862;DHT22;48953;53.110;5.592;2022-07-17T02:20:18;8.50;99.90
62862;DHT22;48953;53.110;5.592;2022-07-17T02:22:44;8.40;99.90
62862;DHT22;48953;53.110;5.592;2022-07-17T02:25:11;8.50;99.90
62862;DHT22;48953;53.110;5.592;2022-07-17T02:27:37;8.40;99.90
62862;DHT22;48953;53.110;5.592;2022-07-17T02:30:05;8.40;99.90
62862;DHT22;48953;53.110;5.592;2022-07-17T02:32:31;8.30;99.90
62862;DHT22;48953;53.110;5.592;2022-07-17T02:34:57;8.30;99.90
62862;DHT22;48953;53.110;5.592;2022-07-17T02:37:22;8.30;99.90
62862;DHT22;48953;53.110;5.592;2022-07-17T02:39:48;8.40;99.90
62862;DHT22;48953;53.110;5.592;2022-07-17T02:42:25;8.30;99.90
62862;DHT22;48953;53.110;5.592;2022-07-17T02:44:52;8.30;99.90
62862;DHT22;48953;53.110;5.592;2022-07-17T02:47:25;8.30;99.90
62862;DHT22;48953;53.110;5.592;2022-07-17T02:49:52;8.30;99.90
62862;DHT22;48953;53.110;5.592;2022-07-17T02:52:18;8.30;99.90
62862;DHT22;48953;53.110;5.592;2022-07-17T02:54:44;8.50;99.90
62862;DHT22;48953;53.110;5.592;2022-07-17T02:57:10;8.50;99.90
62862;DHT22;48953;53.110;5.592;2022-07-17T02:59:37;8.40;99.90
62862;DHT22;48953;53.110;5.592;2022-07-17T03:02:02;8.70;99.90
62862;DHT22;48953;53.110;5.592;2022-07-17T03:04:28;8.90;99.90
62862;DHT22;48953;53.110;5.592;2022-07-17T03:06:54;9.00;99.90
62862;DHT22;48953;53.110;5.592;2022-07-17T03:09:19;9.30;99.90
62862;DHT22;48953;53.110;5.592;2022-07-17T03:11:45;9.40;99.90
62862;DHT22;48953;53.110;5.592;2022-07-17T03:14:10;9.30;99.90
62862;DHT22;48953;53.110;5.592;2022-07-17T03:16:36;9.30;99.90
62862;DHT22;48953;53.110;5.592;2022-07-17T03:19:02;9.30;99.90
62862;DHT22;48953;53.110;5.592;2022-07-17T03:21:27;9.30;99.90
62862;DHT22;48953;53.110;5.592;2022-07-17T03:23:53;9.30;99.90
62862;DHT22;48953;53.110;5.592;2022-07-17T03:26:18;9.30;99.90
62862;DHT22;48953;53.110;5.592;2022-07-17T03:28:44;9.60;99.90
62862;DHT22;48953;53.110;5.592;2022-07-17T03:31:10;9.70;99.90
62862;DHT22;48953;53.110;5.592;2022-07-17T03:33:35;9.70;99.90
62862;DHT22;48953;53.110;5.592;2022-07-17T03:36:01;9.70;73.60
62862;DHT22;48953;53.110;5.592;2022-07-17T03:38:27;9.80;49.40
62862;DHT22;48953;53.110;5.592;2022-07-17T03:40:52;9.90;81.30
62862;DHT22;48953;53.110;5.592;2022-07-17T03:43:18;10.00;24.40
62862;DHT22;48953;53.110;5.592;2022-07-17T03:45:44;10.10;20.60
62862;DHT22;48953;53.110;5.592;2022-07-17T03:48:09;10.20;22.10
62862;DHT22;48953;53.110;5.592;2022-07-17T03:50:35;10.20;10.10
62862;DHT22;48953;53.110;5.592;2022-07-17T03:53:01;10.30;49.90
62862;DHT22;48953;53.110;5.592;2022-07-17T03:55:26;10.30;38.60
62862;DHT22;48953;53.110;5.592;2022-07-17T03:57:52;10.50;50.60
62862;DHT22;48953;53.110;5.592;2022-07-17T04:00:18;10.50;4.20
62862;DHT22;48953;53.110;5.592;2022-07-17T04:02:44;10.50;32.30
62862;DHT22;48953;53.110;5.592;2022-07-17T04:05:11;10.60;23.30
62862;DHT22;48953;53.110;5.592;2022-07-17T04:07:38;10.70;49.20
62862;DHT22;48953;53.110;5.592;2022-07-17T04:10:04;10.70;43.40
62862;DHT22;48953;53.110;5.592;2022-07-17T04:12:31;10.60;1.00
62862;DHT22;48953;53.110;5.592;2022-07-17T04:14:56;10.70;1.00
62862;DHT22;48953;53.110;5.592;2022-07-17T04:17:22;10.80;1.70
62862;DHT22;48953;53.110;5.592;2022-07-17T04:19:48;10.80;1.00
62862;DHT22;48953;53.110;5.592;2022-07-17T04:22:14;10.90;1.00
62862;DHT22;48953;53.110;5.592;2022-07-17T04:24:40;11.00;1.00
62862;DHT22;48953;53.110;5.592;2022-07-17T04:27:07;11.10;4.00
62862;DHT22;48953;53.110;5.592;2022-07-17T04:29:33;11.20;1.00
62862;DHT22;48953;53.110;5.592;2022-07-17T04:31:59;11.20;1.00
62862;DHT22;48953;53.110;5.592;2022-07-17T04:34:25;11.30;1.00
62862;DHT22;48953;53.110;5.592;2022-07-17T04:36:51;11.40;1.00
62862;DHT22;48953;53.110;5.592;2022-07-17T04:39:17;11.50;1.00
62862;DHT22;48953;53.110;5.592;2022-07-17T04:41:43;11.70;4.80
62862;DHT22;48953;53.110;5.592;2022-07-17T04:44:09;11.70;1.00
62862;DHT22;48953;53.110;5.592;2022-07-17T04:46:34;11.90;1.00
62862;DHT22;48953;53.110;5.592;2022-07-17T04:49:00;11.80;1.00
62862;DHT22;48953;53.110;5.592;2022-07-17T04:51:25;11.90;1.00
62862;DHT22;48953;53.110;5.592;2022-07-17T04:53:51;12.10;1.00
62862;DHT22;48953;53.110;5.592;2022-07-17T04:56:16;12.20;1.00
62862;DHT22;48953;53.110;5.592;2022-07-17T04:58:42;12.30;1.00
62862;DHT22;48953;53.110;5.592;2022-07-17T05:01:07;12.30;1.00
62862;DHT22;48953;53.110;5.592;2022-07-17T05:03:33;12.50;1.00
62862;DHT22;48953;53.110;5.592;2022-07-17T05:05:59;12.50;1.00
62862;DHT22;48953;53.110;5.592;2022-07-17T05:08:24;12.50;1.00
62862;DHT22;48953;53.110;5.592;2022-07-17T05:10:50;12.70;1.00
62862;DHT22;48953;53.110;5.592;2022-07-17T05:13:16;12.70;1.00
62862;DHT22;48953;53.110;5.592;2022-07-17T05:15:41;12.80;1.00
62862;DHT22;48953;53.110;5.592;2022-07-17T05:18:07;12.90;1.00
62862;DHT22;48953;53.110;5.592;2022-07-17T05:20:33;12.90;1.00
62862;DHT22;48953;53.110;5.592;2022-07-17T05:22:59;13.00;1.00
62862;DHT22;48953;53.110;5.592;2022-07-17T05:25:25;13.10;1.00
62862;DHT22;48953;53.110;5.592;2022-07-17T05:27:51;13.20;1.00
62862;DHT22;48953;53.110;5.592;2022-07-17T05:30:16;13.20;1.00
62862;DHT22;48953;53.110;5.592;2022-07-17T05:32:42;13.40;1.00
62862;DHT22;48953;53.110;5.592;2022-07-17T05:35:09;13.60;1.00
62862;DHT22;48953;53.110;5.592;2022-07-17T05:37:35;13.90;1.00
62862;DHT22;48953;53.110;5.592;2022-07-17T05:40:00;14.30;1.00
62862;DHT22;48953;53.110;5.592;2022-07-17T05:42:26;14.80;1.00
62862;DHT22;48953;53.110;5.592;2022-07-17T05:44:51;15.40;1.00
62862;DHT22;48953;53.110;5.592;2022-07-17T05:47:17;16.00;1.00
62862;DHT22;48953;53.110;5.592;2022-07-17T05:49:43;16.60;1.00
62862;DHT22;48953;53.110;5.592;2022-07-17T05:52:08;17.40;99.90
62862;DHT22;48953;53.110;5.592;2022-07-17T05:54:34;22.00;99.90
62862;DHT22;48953;53.110;5.592;2022-07-17T05:57:00;21.10;99.90
62862;DHT22;48953;53.110;5.592;2022-07-17T05:59:26;21.30;99.90
62862;DHT22;48953;53.110;5.592;2022-07-17T06:01:51;20.30;99.90
62862;DHT22;48953;53.110;5.592;2022-07-17T06:04:17;20.20;99.90
62862;DHT22;48953;53.110;5.592;2022-07-17T06:06:43;20.60;99.90
62862;DHT22;48953;53.110;5.592;2022-07-17T06:09:08;21.00;99.90
62862;DHT22;48953;53.110;5.592;2022-07-17T06:11:34;24.00;99.90
62862;DHT22;48953;53.110;5.592;2022-07-17T06:13:59;25.10;99.90
62862;DHT22;48953;53.110;5.592;2022-07-17T06:16:25;24.30;99.90
62862;DHT22;48953;53.110;5.592;2022-07-17T06:18:51;26.70;99.90
62862;DHT22;48953;53.110;5.592;2022-07-17T06:21:17;25.90;99.90
62862;DHT22;48953;53.110;5.592;2022-07-17T06:23:42;27.90;99.90
62862;DHT22;48953;53.110;5.592;2022-07-17T06:26:08;28.70;99.90
62862;DHT22;48953;53.110;5.592;2022-07-17T06:28:33;28.90;99.90
62862;DHT22;48953;53.110;5.592;2022-07-17T06:30:59;27.30;99.90
62862;DHT22;48953;53.110;5.592;2022-07-17T06:33:25;26.00;99.90
62862;DHT22;48953;53.110;5.592;2022-07-17T06:35:50;25.20;99.90
62862;DHT22;48953;53.110;5.592;2022-07-17T06:38:16;24.50;99.90
62862;DHT22;48953;53.110;5.592;2022-07-17T06:40:42;23.80;99.90
62862;DHT22;48953;53.110;5.592;2022-07-17T06:43:08;23.90;99.90
62862;DHT22;48953;53.110;5.592;2022-07-17T06:45:33;24.60;99.90
62862;DHT22;48953;53.110;5.592;2022-07-17T06:47:59;24.50;99.90
62862;DHT22;48953;53.110;5.592;2022-07-17T06:50:25;25.60;99.90
62862;DHT22;48953;53.110;5.592;2022-07-17T06:52:50;25.00;99.90
62862;DHT22;48953;53.110;5.592;2022-07-17T06:55:16;24.80;99.90
62862;DHT22;48953;53.110;5.592;2022-07-17T06:57:41;25.10;99.90
62862;DHT22;48953;53.110;5.592;2022-07-17T07:00:07;25.70;99.90
62862;DHT22;48953;53.110;5.592;2022-07-17T07:02:34;26.10;99.90
62862;DHT22;48953;53.110;5.592;2022-07-17T07:05:04;26.90;99.90
62862;DHT22;48953;53.110;5.592;2022-07-17T07:07:30;26.60;99.90
62862;DHT22;48953;53.110;5.592;2022-07-17T07:09:55;26.70;99.90
62862;DHT22;48953;53.110;5.592;2022-07-17T07:12:21;26.50;99.90
62862;DHT22;48953;53.110;5.592;2022-07-17T07:14:47;28.70;99.90
62862;DHT22;48953;53.110;5.592;2022-07-17T07:17:12;28.60;99.90
62862;DHT22;48953;53.110;5.592;2022-07-17T07:19:38;29.30;99.90
62862;DHT22;48953;53.110;5.592;2022-07-17T07:22:03;29.80;99.90
62862;DHT22;48953;53.110;5.592;2022-07-17T07:24:29;33.60;99.90
62862;DHT22;48953;53.110;5.592;2022-07-17T07:26:55;34.50;99.90
62862;DHT22;48953;53.110;5.592;2022-07-17T07:29:20;36.40;99.90
62862;DHT22;48953;53.110;5.592;2022-07-17T07:31:46;36.90;99.90
62862;DHT22;48953;53.110;5.592;2022-07-17T07:34:13;37.80;99.90
62862;DHT22;48953;53.110;5.592;2022-07-17T07:36:38;38.60;99.90
62862;DHT22;48953;53.110;5.592;2022-07-17T07:39:04;39.40;99.90
62862;DHT22;48953;53.110;5.592;2022-07-17T07:41:30;37.80;99.90
62862;DHT22;48953;53.110;5.592;2022-07-17T07:43:55;38.00;99.90
62862;DHT22;48953;53.110;5.592;2022-07-17T07:46:21;38.50;99.90
62862;DHT22;48953;53.110;5.592;2022-07-17T07:48:46;39.20;99.90
62862;DHT22;48953;53.110;5.592;2022-07-17T07:51:12;40.80;99.90
62862;DHT22;48953;53.110;5.592;2022-07-17T07:53:38;41.30;99.90
62862;DHT22;48953;53.110;5.592;2022-07-17T07:56:03;41.30;99.90
62862;DHT22;48953;53.110;5.592;2022-07-17T07:58:29;39.50;99.90
62862;DHT22;48953;53.110;5.592;2022-07-17T08:00:55;40.60;99.90
62862;DHT22;48953;53.110;5.592;2022-07-17T08:03:20;40.30;99.90
62862;DHT22;48953;53.110;5.592;2022-07-17T08:05:46;41.90;99.90
62862;DHT22;48953;53.110;5.592;2022-07-17T08:08:11;41.90;99.90
62862;DHT22;48953;53.110;5.592;2022-07-17T08:10:37;41.60;99.90
62862;DHT22;48953;53.110;5.592;2022-07-17T08:13:03;41.30;99.90
62862;DHT22;48953;53.110;5.592;2022-07-17T08:15:28;42.60;99.90
62862;DHT22;48953;53.110;5.592;2022-07-17T08:17:54;41.80;99.90
62862;DHT22;48953;53.110;5.592;2022-07-17T08:20:20;41.90;99.90
62862;DHT22;48953;53.110;5.592;2022-07-17T08:22:47;43.80;99.90
62862;DHT22;48953;53.110;5.592;2022-07-17T08:25:13;43.80;99.90
62862;DHT22;48953;53.110;5.592;2022-07-17T08:27:40;43.30;99.90
62862;DHT22;48953;53.110;5.592;2022-07-17T08:30:08;44.20;99.90
62862;DHT22;48953;53.110;5.592;2022-07-17T08:32:34;44.00;99.90
62862;DHT22;48953;53.110;5.592;2022-07-17T08:35:01;45.00;99.90
62862;DHT22;48953;53.110;5.592;2022-07-17T08:37:26;44.90;99.90
62862;DHT22;48953;53.110;5.592;2022-07-17T08:39:52;45.10;99.90
62862;DHT22;48953;53.110;5.592;2022-07-17T08:42:18;44.90;99.90
62862;DHT22;48953;53.110;5.592;2022-07-17T08:44:45;42.10;99.90
62862;DHT22;48953;53.110;5.592;2022-07-17T08:47:14;43.60;99.90
62862;DHT22;48953;53.110;5.592;2022-07-17T08:49:45;43.80;99.90
62862;DHT22;48953;53.110;5.592;2022-07-17T08:52:14;45.10;99.90
62862;DHT22;48953;53.110;5.592;2022-07-17T08:54:40;44.90;99.90
62862;DHT22;48953;53.110;5.592;2022-07-17T08:57:07;42.40;99.90
62862;DHT22;48953;53.110;5.592;2022-07-17T08:59:32;40.00;99.90
62862;DHT22;48953;53.110;5.592;2022-07-17T09:02:01;42.60;99.90
62862;DHT22;48953;53.110;5.592;2022-07-17T09:04:28;43.20;99.90
62862;DHT22;48953;53.110;5.592;2022-07-17T09:07:02;42.80;99.90
62862;DHT22;48953;53.110;5.592;2022-07-17T09:09:28;42.80;99.90
62862;DHT22;48953;53.110;5.592;2022-07-17T09:11:55;43.20;99.90
62862;DHT22;48953;53.110;5.592;2022-07-17T09:14:21;44.50;99.90
62862;DHT22;48953;53.110;5.592;2022-07-17T09:16:53;43.30;99.90
62862;DHT22;48953;53.110;5.592;2022-07-17T09:19:32;43.70;99.90
62862;DHT22;48953;53.110;5.592;2022-07-17T09:22:24;43.60;99.90
62862;DHT22;48953;53.110;5.592;2022-07-17T09:24:53;43.20;99.90
62862;DHT22;48953;53.110;5.592;2022-07-17T09:32:20;44.30;99.90
62862;DHT22;48953;53.110;5.592;2022-07-17T09:34:48;44.80;99.90
62862;DHT22;48953;53.110;5.592;2022-07-17T09:37:14;41.80;99.90
62862;DHT22;48953;53.110;5.592;2022-07-17T09:39:40;40.10;99.90
62862;DHT22;48953;53.110;5.592;2022-07-17T09:42:06;39.30;99.90
62862;DHT22;48953;53.110;5.592;2022-07-17T09:44:31;38.90;99.90
62862;DHT22;48953;53.110;5.592;2022-07-17T09:46:57;41.00;99.90
62862;DHT22;48953;53.110;5.592;2022-07-17T09:49:26;43.90;99.90
62862;DHT22;48953;53.110;5.592;2022-07-17T09:51:53;42.70;99.90
62862;DHT22;48953;53.110;5.592;2022-07-17T09:54:21;41.20;99.90
62862;DHT22;48953;53.110;5.592;2022-07-17T09:56:50;40.30;99.90
62862;DHT22;48953;53.110;5.592;2022-07-17T09:59:17;42.00;99.90
62862;DHT22;48953;53.110;5.592;2022-07-17T10:01:43;44.40;99.90
62862;DHT22;48953;53.110;5.592;2022-07-17T10:04:21;42.70;99.90
62862;DHT22;48953;53.110;5.592;2022-07-17T10:06:47;42.30;99.90
62862;DHT22;48953;53.110;5.592;2022-07-17T10:09:12;42.30;99.90
62862;DHT22;48953;53.110;5.592;2022-07-17T10:11:39;41.00;99.90
62862;DHT22;48953;53.110;5.592;2022-07-17T10:14:13;41.60;99.90
62862;DHT22;48953;53.110;5.592;2022-07-17T10:16:39;42.80;99.90
62862;DHT22;48953;53.110;5.592;2022-07-17T10:19:19;43.20;99.90
62862;DHT22;48953;53.110;5.592;2022-07-17T10:21:59;43.50;99.90
62862;DHT22;48953;53.110;5.592;2022-07-17T10:24:27;43.70;99.90
62862;DHT22;48953;53.110;5.592;2022-07-17T10:26:53;41.40;99.90
62862;DHT22;48953;53.110;5.592;2022-07-17T10:29:29;42.00;99.90
62862;DHT22;48953;53.110;5.592;2022-07-17T10:31:55;42.80;99.90
62862;DHT22;48953;53.110;5.592;2022-07-17T10:37:14;43.70;99.90
62862;DHT22;48953;53.110;5.592;2022-07-17T10:39:40;43.00;99.90
62862;DHT22;48953;53.110;5.592;2022-07-17T10:42:36;42.90;99.90
62862;DHT22;48953;53.110;5.592;2022-07-17T10:45:09;44.30;99.90
62862;DHT22;48953;53.110;5.592;2022-07-17T10:50:48;42.50;99.90
62862;DHT22;48953;53.110;5.592;2022-07-17T10:53:21;40.40;99.90
62862;DHT22;48953;53.110;5.592;2022-07-17T10:55:56;41.60;99.90
62862;DHT22;48953;53.110;5.592;2022-07-17T10:58:37;42.20;99.90
62862;DHT22;48953;53.110;5.592;2022-07-17T11:01:09;42.00;99.90
62862;DHT22;48953;53.110;5.592;2022-07-17T11:11:10;40.40;99.90
62862;DHT22;48953;53.110;5.592;2022-07-17T11:13:36;40.00;99.90
62862;DHT22;48953;53.110;5.592;2022-07-17T11:16:02;39.00;99.90
62862;DHT22;48953;53.110;5.592;2022-07-17T11:18:29;38.40;99.90
62862;DHT22;48953;53.110;5.592;2022-07-17T11:20:58;37.60;99.90
62862;DHT22;48953;53.110;5.592;2022-07-17T11:23:26;36.00;99.90
62862;DHT22;48953;53.110;5.592;2022-07-17T11:25:58;34.60;99.90
62862;DHT22;48953;53.110;5.592;2022-07-17T11:28:42;33.20;99.90
62862;DHT22;48953;53.110;5.592;2022-07-17T11:31:18;32.00;99.90
62862;DHT22;48953;53.110;5.592;2022-07-17T11:33:54;31.90;99.90
62862;DHT22;48953;53.110;5.592;2022-07-17T11:36:46;31.90;99.90
62862;DHT22;48953;53.110;5.592;2022-07-17T11:39:16;31.30;99.90
62862;DHT22;48953;53.110;5.592;2022-07-17T11:41:49;31.10;99.90
62862;DHT22;48953;53.110;5.592;2022-07-17T11:44:20;30.90;99.90
62862;DHT22;48953;53.110;5.592;2022-07-17T11:46:48;31.30;99.90
62862;DHT22;48953;53.110;5.592;2022-07-17T11:49:44;30.90;99.90
62862;DHT22;48953;53.110;5.592;2022-07-17T11:52:18;31.00;99.90
62862;DHT22;48953;53.110;5.592;2022-07-17T11:54:52;30.20;99.90
62862;DHT22;48953;53.110;5.592;2022-07-17T11:57:20;30.40;99.90
62862;DHT22;48953;53.110;5.592;2022-07-17T11:59:46;30.40;99.90
62862;DHT22;48953;53.110;5.592;2022-07-17T12:02:29;30.10;99.90
62862;DHT22;48953;53.110;5.592;2022-07-17T12:04:58;30.20;99.90
62862;DHT22;48953;53.110;5.592;2022-07-17T12:07:26;29.70;99.90
62862;DHT22;48953;53.110;5.592;2022-07-17T12:09:52;29.80;99.90
62862;DHT22;48953;53.110;5.592;2022-07-17T12:12:25;29.10;99.90
62862;DHT22;48953;53.110;5.592;2022-07-17T12:14:53;29.50;99.90
62862;DHT22;48953;53.110;5.592;2022-07-17T12:17:20;29.50;99.90
62862;DHT22;48953;53.110;5.592;2022-07-17T12:19:45;28.90;99.90
62862;DHT22;48953;53.110;5.592;2022-07-17T12:22:11;29.40;99.90
62862;DHT22;48953;53.110;5.592;2022-07-17T12:24:42;29.40;99.90
62862;DHT22;48953;53.110;5.592;2022-07-17T12:27:10;29.80;99.90
62862;DHT22;48953;53.110;5.592;2022-07-17T12:29:36;29.80;99.90
62862;DHT22;48953;53.110;5.592;2022-07-17T12:32:13;29.60;99.90
62862;DHT22;48953;53.110;5.592;2022-07-17T12:34:44;29.80;99.90
62862;DHT22;48953;53.110;5.592;2022-07-17T12:37:21;29.80;99.90
62862;DHT22;48953;53.110;5.592;2022-07-17T12:39:48;30.10;99.90
62862;DHT22;48953;53.110;5.592;2022-07-17T12:42:15;30.20;99.90
62862;DHT22;48953;53.110;5.592;2022-07-17T12:44:42;29.40;99.90
62862;DHT22;48953;53.110;5.592;2022-07-17T12:47:08;29.70;99.90
62862;DHT22;48953;53.110;5.592;2022-07-17T12:49:33;28.90;99.90
62862;DHT22;48953;53.110;5.592;2022-07-17T12:51:59;29.20;99.90
62862;DHT22;48953;53.110;5.592;2022-07-17T12:54:25;29.10;99.90
62862;DHT22;48953;53.110;5.592;2022-07-17T12:56:50;29.90;99.90
62862;DHT22;48953;53.110;5.592;2022-07-17T12:59:16;30.00;99.90
62862;DHT22;48953;53.110;5.592;2022-07-17T13:01:42;29.70;99.90
62862;DHT22;48953;53.110;5.592;2022-07-17T13:04:07;29.70;99.90
62862;DHT22;48953;53.110;5.592;2022-07-17T13:06:33;29.70;99.90
62862;DHT22;48953;53.110;5.592;2022-07-17T13:08:59;29.60;99.90
62862;DHT22;48953;53.110;5.592;2022-07-17T13:11:25;29.60;99.90
62862;DHT22;48953;53.110;5.592;2022-07-17T13:13:52;29.20;99.90
62862;DHT22;48953;53.110;5.592;2022-07-17T13:16:18;28.20;99.90
62862;DHT22;48953;53.110;5.592;2022-07-17T13:18:43;28.50;99.90
62862;DHT22;48953;53.110;5.592;2022-07-17T13:21:09;29.20;99.90
62862;DHT22;48953;53.110;5.592;2022-07-17T13:23:35;28.20;99.90
62862;DHT22;48953;53.110;5.592;2022-07-17T13:26:01;28.30;99.90
62862;DHT22;48953;53.110;5.592;2022-07-17T13:28:27;27.80;99.90
62862;DHT22;48953;53.110;5.592;2022-07-17T13:30:52;28.70;99.90
62862;DHT22;48953;53.110;5.592;2022-07-17T13:33:18;29.60;99.90
62862;DHT22;48953;53.110;5.592;2022-07-17T13:35:44;29.70;99.90
62862;DHT22;48953;53.110;5.592;2022-07-17T13:38:09;29.90;99.90
62862;DHT22;48953;53.110;5.592;2022-07-17T13:40:36;29.90;99.90
62862;DHT22;48953;53.110;5.592;2022-07-17T13:43:03;29.60;99.90
62862;DHT22;48953;53.110;5.592;2022-07-17T13:45:29;29.00;99.90
62862;DHT22;48953;53.110;5.592;2022-07-17T13:47:55;28.40;99.90
62862;DHT22;48953;53.110;5.592;2022-07-17T13:50:21;27.60;99.90
62862;DHT22;48953;53.110;5.592;2022-07-17T13:52:47;27.70;99.90
62862;DHT22;48953;53.110;5.592;2022-07-17T13:55:13;28.50;99.90
62862;DHT22;48953;53.110;5.592;2022-07-17T13:57:39;29.00;99.90
62862;DHT22;48953;53.110;5.592;2022-07-17T14:00:05;29.40;99.90
62862;DHT22;48953;53.110;5.592;2022-07-17T14:02:31;29.80;99.90
62862;DHT22;48953;53.110;5.592;2022-07-17T14:04:58;29.70;99.90
62862;DHT22;48953;53.110;5.592;2022-07-17T14:07:24;28.60;99.90
62862;DHT22;48953;53.110;5.592;2022-07-17T14:09:50;27.90;99.90
62862;DHT22;48953;53.110;5.592;2022-07-17T14:12:15;28.00;99.90
62862;DHT22;48953;53.110;5.592;2022-07-17T14:14:41;27.80;99.90
62862;DHT22;48953;53.110;5.592;2022-07-17T14:17:06;28.40;99.90
62862;DHT22;48953;53.110;5.592;2022-07-17T14:19:33;28.90;99.90
62862;DHT22;48953;53.110;5.592;2022-07-17T14:22:00;29.00;99.90
62862;DHT22;48953;53.110;5.592;2022-07-17T14:24:25;29.10;99.90
62862;DHT22;48953;53.110;5.592;2022-07-17T14:26:51;29.00;99.90
62862;DHT22;48953;53.110;5.592;2022-07-17T14:29:16;29.30;99.90
62862;DHT22;48953;53.110;5.592;2022-07-17T14:31:42;29.40;99.90
62862;DHT22;48953;53.110;5.592;2022-07-17T14:34:07;29.60;99.90
62862;DHT22;48953;53.110;5.592;2022-07-17T14:36:33;29.40;99.90
62862;DHT22;48953;53.110;5.592;2022-07-17T14:38:59;29.50;99.90
62862;DHT22;48953;53.110;5.592;2022-07-17T14:41:25;28.70;99.90
62862;DHT22;48953;53.110;5.592;2022-07-17T14:43:52;28.20;99.90
62862;DHT22;48953;53.110;5.592;2022-07-17T14:46:17;28.90;99.90
62862;DHT22;48953;53.110;5.592;2022-07-17T14:48:43;29.20;99.90
62862;DHT22;48953;53.110;5.592;2022-07-17T14:51:09;29.10;99.90
62862;DHT22;48953;53.110;5.592;2022-07-17T14:53:34;28.90;99.90
62862;DHT22;48953;53.110;5.592;2022-07-17T14:56:00;28.80;99.90
62862;DHT22;48953;53.110;5.592;2022-07-17T14:58:26;29.40;99.90
62862;DHT22;48953;53.110;5.592;2022-07-17T15:00:51;29.80;99.90
62862;DHT22;48953;53.110;5.592;2022-07-17T15:03:17;29.80;99.90
62862;DHT22;48953;53.110;5.592;2022-07-17T15:05:43;29.80;99.90
62862;DHT22;48953;53.110;5.592;2022-07-17T15:08:08;29.60;99.90
62862;DHT22;48953;53.110;5.592;2022-07-17T15:10:34;29.90;99.90
62862;DHT22;48953;53.110;5.592;2022-07-17T15:13:00;29.70;99.90
62862;DHT22;48953;53.110;5.592;2022-07-17T15:15:26;29.50;99.90
62862;DHT22;48953;53.110;5.592;2022-07-17T15:17:51;29.40;99.90
62862;DHT22;48953;53.110;5.592;2022-07-17T15:20:17;29.00;99.90
62862;DHT22;48953;53.110;5.592;2022-07-17T15:22:44;29.00;99.90
62862;DHT22;48953;53.110;5.592;2022-07-17T15:25:09;28.80;99.90
62862;DHT22;48953;53.110;5.592;2022-07-17T15:27:35;28.70;99.90
62862;DHT22;48953;53.110;5.592;2022-07-17T15:30:01;28.50;99.90
62862;DHT22;48953;53.110;5.592;2022-07-17T15:32:28;28.10;99.90
62862;DHT22;48953;53.110;5.592;2022-07-17T15:34:54;27.80;99.90
62862;DHT22;48953;53.110;5.592;2022-07-17T15:37:19;28.10;99.90
62862;DHT22;48953;53.110;5.592;2022-07-17T15:39:49;28.30;99.90
62862;DHT22;48953;53.110;5.592;2022-07-17T15:42:14;28.30;99.90
62862;DHT22;48953;53.110;5.592;2022-07-17T15:44:40;28.50;99.90
62862;DHT22;48953;53.110;5.592;2022-07-17T15:47:06;28.50;99.90
62862;DHT22;48953;53.110;5.592;2022-07-17T15:49:33;28.40;99.90
62862;DHT22;48953;53.110;5.592;2022-07-17T15:51:59;27.80;99.90